首页
METAR-TAF:

METAR-TAF

机场 :

兰斯, 法国

纬度: 49-12-31N, 经度: 004-09-24E, 海拔: 95米

当前天气观测

该预报发布于28分钟前的22:00 UTC
风速12节,风向北转东北
温度 3°C
湿度 65%
气压 1029 hPa
能见度10公里或以上
1500米以下无云,无积雨云

METAR: LFQA 292200Z AUTO 03012KT CAVOK 03/M03 Q1029

时间: 00:28 (22:28 UTC)


TAF: 丢失

超过4000个机场的气象观测和天气预报(METAR&TAF报告)。

可查询的气象台以黄色和红色小点在地图上表示。

将鼠标移到小点上方,可查看气象台名称。

然后点击查看天气观测和预报。

如需切换地图:点击带黑十字的绿色按钮放大地图;点击带横线的绿色按钮缩小地图;或者点击绿色箭头查看邻近地区的地图。


METAR-TAF: